sensor_id;sensor_type;location;lat;lon;timestamp;P1;durP1;ratioP1;P2;durP2;ratioP2
16288;SDS011;26089;43.538;5.250;2023-01-23T00:02:16;12.60;;;9.57;;
16288;SDS011;26089;43.538;5.250;2023-01-23T00:04:44;14.27;;;9.83;;
16288;SDS011;26089;43.538;5.250;2023-01-23T00:07:12;12.57;;;10.03;;
16288;SDS011;26089;43.538;5.250;2023-01-23T00:09:39;11.10;;;8.57;;
16288;SDS011;26089;43.538;5.250;2023-01-23T00:12:06;14.37;;;8.93;;
16288;SDS011;26089;43.538;5.250;2023-01-23T00:14:33;11.70;;;8.33;;
16288;SDS011;26089;43.538;5.250;2023-01-23T00:17:00;13.17;;;8.93;;
16288;SDS011;26089;43.538;5.250;2023-01-23T00:19:27;9.77;;;8.23;;
16288;SDS011;26089;43.538;5.250;2023-01-23T00:21:57;11.30;;;9.17;;
16288;SDS011;26089;43.538;5.250;2023-01-23T00:24:25;11.60;;;8.93;;
16288;SDS011;26089;43.538;5.250;2023-01-23T00:26:52;12.17;;;8.77;;
16288;SDS011;26089;43.538;5.250;2023-01-23T00:29:21;9.40;;;8.17;;
16288;SDS011;26089;43.538;5.250;2023-01-23T00:31:48;13.00;;;9.90;;
16288;SDS011;26089;43.538;5.250;2023-01-23T00:34:15;13.17;;;9.63;;
16288;SDS011;26089;43.538;5.250;2023-01-23T00:36:43;13.23;;;9.10;;
16288;SDS011;26089;43.538;5.250;2023-01-23T00:39:11;12.03;;;9.17;;
16288;SDS011;26089;43.538;5.250;2023-01-23T00:41:43;12.43;;;8.97;;
16288;SDS011;26089;43.538;5.250;2023-01-23T00:44:10;11.23;;;8.73;;
16288;SDS011;26089;43.538;5.250;2023-01-23T00:46:37;11.30;;;8.87;;
16288;SDS011;26089;43.538;5.250;2023-01-23T00:49:04;12.50;;;8.47;;
16288;SDS011;26089;43.538;5.250;2023-01-23T00:51:32;12.57;;;9.53;;
16288;SDS011;26089;43.538;5.250;2023-01-23T00:53:59;11.13;;;8.60;;
16288;SDS011;26089;43.538;5.250;2023-01-23T00:56:26;9.77;;;8.33;;
16288;SDS011;26089;43.538;5.250;2023-01-23T00:58:55;11.33;;;9.07;;
16288;SDS011;26089;43.538;5.250;2023-01-23T01:01:22;13.40;;;8.83;;
16288;SDS011;26089;43.538;5.250;2023-01-23T01:03:50;12.67;;;9.23;;
16288;SDS011;26089;43.538;5.250;2023-01-23T01:06:17;13.60;;;8.90;;
16288;SDS011;26089;43.538;5.250;2023-01-23T01:08:44;11.07;;;8.40;;
16288;SDS011;26089;43.538;5.250;2023-01-23T01:11:11;12.37;;;8.87;;
16288;SDS011;26089;43.538;5.250;2023-01-23T01:13:38;10.27;;;8.63;;
16288;SDS011;26089;43.538;5.250;2023-01-23T01:16:07;10.23;;;7.93;;
16288;SDS011;26089;43.538;5.250;2023-01-23T01:18:34;9.70;;;8.07;;
16288;SDS011;26089;43.538;5.250;2023-01-23T01:21:04;11.47;;;8.97;;
16288;SDS011;26089;43.538;5.250;2023-01-23T01:23:32;10.60;;;8.23;;
16288;SDS011;26089;43.538;5.250;2023-01-23T01:26:00;10.77;;;8.67;;
16288;SDS011;26089;43.538;5.250;2023-01-23T01:28:27;10.67;;;8.07;;
16288;SDS011;26089;43.538;5.250;2023-01-23T01:30:57;12.13;;;10.13;;
16288;SDS011;26089;43.538;5.250;2023-01-23T01:33:30;9.57;;;7.43;;
16288;SDS011;26089;43.538;5.250;2023-01-23T01:35:58;13.43;;;9.40;;
16288;SDS011;26089;43.538;5.250;2023-01-23T01:38:25;16.27;;;10.30;;
16288;SDS011;26089;43.538;5.250;2023-01-23T01:40:53;13.67;;;10.10;;
16288;SDS011;26089;43.538;5.250;2023-01-23T01:43:22;15.17;;;9.57;;
16288;SDS011;26089;43.538;5.250;2023-01-23T01:45:59;14.43;;;10.33;;
16288;SDS011;26089;43.538;5.250;2023-01-23T01:48:37;15.40;;;9.90;;
16288;SDS011;26089;43.538;5.250;2023-01-23T01:51:14;14.17;;;9.17;;
16288;SDS011;26089;43.538;5.250;2023-01-23T01:53:50;12.57;;;9.00;;
16288;SDS011;26089;43.538;5.250;2023-01-23T01:56:23;12.83;;;9.03;;
16288;SDS011;26089;43.538;5.250;2023-01-23T01:58:53;14.13;;;8.63;;
16288;SDS011;26089;43.538;5.250;2023-01-23T02:01:20;10.40;;;7.63;;
16288;SDS011;26089;43.538;5.250;2023-01-23T02:03:49;11.63;;;7.23;;
16288;SDS011;26089;43.538;5.250;2023-01-23T02:06:18;9.63;;;7.67;;
16288;SDS011;26089;43.538;5.250;2023-01-23T02:08:46;10.37;;;8.00;;
16288;SDS011;26089;43.538;5.250;2023-01-23T02:11:19;10.37;;;8.77;;
16288;SDS011;26089;43.538;5.250;2023-01-23T02:13:46;12.87;;;9.10;;
16288;SDS011;26089;43.538;5.250;2023-01-23T02:16:14;9.77;;;8.57;;
16288;SDS011;26089;43.538;5.250;2023-01-23T02:18:44;12.17;;;8.83;;
16288;SDS011;26089;43.538;5.250;2023-01-23T02:21:16;10.27;;;8.77;;
16288;SDS011;26089;43.538;5.250;2023-01-23T02:23:49;10.90;;;8.00;;
16288;SDS011;26089;43.538;5.250;2023-01-23T02:26:27;9.77;;;8.27;;
16288;SDS011;26089;43.538;5.250;2023-01-23T02:28:57;10.87;;;8.43;;
16288;SDS011;26089;43.538;5.250;2023-01-23T02:31:24;8.67;;;7.53;;
16288;SDS011;26089;43.538;5.250;2023-01-23T02:33:53;9.60;;;8.07;;
16288;SDS011;26089;43.538;5.250;2023-01-23T02:36:22;13.67;;;9.93;;
16288;SDS011;26089;43.538;5.250;2023-01-23T02:38:56;12.43;;;9.60;;
16288;SDS011;26089;43.538;5.250;2023-01-23T02:41:30;11.73;;;8.90;;
16288;SDS011;26089;43.538;5.250;2023-01-23T02:43:58;12.40;;;9.03;;
16288;SDS011;26089;43.538;5.250;2023-01-23T02:46:27;11.20;;;8.40;;
16288;SDS011;26089;43.538;5.250;2023-01-23T02:48:55;9.60;;;8.60;;
16288;SDS011;26089;43.538;5.250;2023-01-23T02:51:22;9.77;;;8.23;;
16288;SDS011;26089;43.538;5.250;2023-01-23T02:53:49;9.70;;;7.80;;
16288;SDS011;26089;43.538;5.250;2023-01-23T02:56:16;9.53;;;8.00;;
16288;SDS011;26089;43.538;5.250;2023-01-23T02:58:45;11.70;;;8.83;;
16288;SDS011;26089;43.538;5.250;2023-01-23T03:01:30;11.33;;;8.00;;
16288;SDS011;26089;43.538;5.250;2023-01-23T03:03:59;10.20;;;7.83;;
16288;SDS011;26089;43.538;5.250;2023-01-23T03:06:29;9.07;;;7.93;;
16288;SDS011;26089;43.538;5.250;2023-01-23T03:09:01;10.47;;;8.60;;
16288;SDS011;26089;43.538;5.250;2023-01-23T03:11:33;12.43;;;9.40;;
16288;SDS011;26089;43.538;5.250;2023-01-23T03:14:03;10.03;;;8.10;;
16288;SDS011;26089;43.538;5.250;2023-01-23T03:16:31;9.37;;;7.57;;
16288;SDS011;26089;43.538;5.250;2023-01-23T03:19:00;11.97;;;8.33;;
16288;SDS011;26089;43.538;5.250;2023-01-23T03:21:29;11.30;;;8.73;;
16288;SDS011;26089;43.538;5.250;2023-01-23T03:23:57;10.50;;;7.97;;
16288;SDS011;26089;43.538;5.250;2023-01-23T03:26:24;8.67;;;7.70;;
16288;SDS011;26089;43.538;5.250;2023-01-23T03:28:51;9.90;;;8.33;;
16288;SDS011;26089;43.538;5.250;2023-01-23T03:31:36;9.97;;;8.93;;
16288;SDS011;26089;43.538;5.250;2023-01-23T03:34:03;10.50;;;8.20;;
16288;SDS011;26089;43.538;5.250;2023-01-23T03:36:31;10.57;;;8.17;;
16288;SDS011;26089;43.538;5.250;2023-01-23T03:39:01;9.67;;;8.60;;
16288;SDS011;26089;43.538;5.250;2023-01-23T03:41:46;9.77;;;8.77;;
16288;SDS011;26089;43.538;5.250;2023-01-23T03:44:15;9.67;;;7.40;;
16288;SDS011;26089;43.538;5.250;2023-01-23T03:46:45;8.13;;;7.07;;
16288;SDS011;26089;43.538;5.250;2023-01-23T03:49:13;11.73;;;8.10;;
16288;SDS011;26089;43.538;5.250;2023-01-23T03:51:41;10.97;;;8.70;;
16288;SDS011;26089;43.538;5.250;2023-01-23T03:54:08;10.70;;;8.33;;
16288;SDS011;26089;43.538;5.250;2023-01-23T03:56:35;8.90;;;8.00;;
16288;SDS011;26089;43.538;5.250;2023-01-23T03:59:03;9.33;;;8.33;;
16288;SDS011;26089;43.538;5.250;2023-01-23T04:01:30;9.67;;;8.03;;
16288;SDS011;26089;43.538;5.250;2023-01-23T04:03:58;11.30;;;9.03;;
16288;SDS011;26089;43.538;5.250;2023-01-23T04:06:25;13.20;;;9.40;;
16288;SDS011;26089;43.538;5.250;2023-01-23T04:08:52;10.90;;;8.47;;
16288;SDS011;26089;43.538;5.250;2023-01-23T04:11:21;11.73;;;8.23;;
16288;SDS011;26089;43.538;5.250;2023-01-23T04:13:48;10.37;;;8.23;;
16288;SDS011;26089;43.538;5.250;2023-01-23T04:16:15;13.20;;;10.47;;
16288;SDS011;26089;43.538;5.250;2023-01-23T04:18:42;11.17;;;8.43;;
16288;SDS011;26089;43.538;5.250;2023-01-23T04:21:10;13.70;;;10.03;;
16288;SDS011;26089;43.538;5.250;2023-01-23T04:23:37;10.60;;;8.30;;
16288;SDS011;26089;43.538;5.250;2023-01-23T04:26:04;14.70;;;10.43;;
16288;SDS011;26089;43.538;5.250;2023-01-23T04:28:31;11.17;;;9.00;;
16288;SDS011;26089;43.538;5.250;2023-01-23T04:30:58;9.70;;;8.50;;
16288;SDS011;26089;43.538;5.250;2023-01-23T04:33:25;9.70;;;8.23;;
16288;SDS011;26089;43.538;5.250;2023-01-23T04:35:53;13.50;;;9.10;;
16288;SDS011;26089;43.538;5.250;2023-01-23T04:38:23;11.07;;;8.67;;
16288;SDS011;26089;43.538;5.250;2023-01-23T04:40:51;11.03;;;8.43;;
16288;SDS011;26089;43.538;5.250;2023-01-23T04:43:19;11.03;;;9.00;;
16288;SDS011;26089;43.538;5.250;2023-01-23T04:45:48;11.13;;;8.83;;
16288;SDS011;26089;43.538;5.250;2023-01-23T04:48:15;10.93;;;8.47;;
16288;SDS011;26089;43.538;5.250;2023-01-23T04:50:42;15.93;;;10.93;;
16288;SDS011;26089;43.538;5.250;2023-01-23T04:53:10;14.40;;;9.43;;
16288;SDS011;26089;43.538;5.250;2023-01-23T04:55:39;13.83;;;10.00;;
16288;SDS011;26089;43.538;5.250;2023-01-23T04:58:06;12.67;;;9.30;;
16288;SDS011;26089;43.538;5.250;2023-01-23T05:00:35;12.57;;;9.40;;
16288;SDS011;26089;43.538;5.250;2023-01-23T05:03:02;12.90;;;9.40;;
16288;SDS011;26089;43.538;5.250;2023-01-23T05:05:30;13.00;;;9.80;;
16288;SDS011;26089;43.538;5.250;2023-01-23T05:07:57;13.53;;;9.97;;
16288;SDS011;26089;43.538;5.250;2023-01-23T05:10:24;13.07;;;9.67;;
16288;SDS011;26089;43.538;5.250;2023-01-23T05:12:52;16.70;;;10.80;;
16288;SDS011;26089;43.538;5.250;2023-01-23T05:15:19;13.33;;;9.27;;
16288;SDS011;26089;43.538;5.250;2023-01-23T05:17:48;11.67;;;9.07;;
16288;SDS011;26089;43.538;5.250;2023-01-23T05:20:15;12.47;;;9.00;;
16288;SDS011;26089;43.538;5.250;2023-01-23T05:22:44;11.73;;;8.70;;
16288;SDS011;26089;43.538;5.250;2023-01-23T05:25:17;21.63;;;13.30;;
16288;SDS011;26089;43.538;5.250;2023-01-23T05:27:45;33.90;;;17.60;;
16288;SDS011;26089;43.538;5.250;2023-01-23T05:30:14;15.17;;;10.70;;
16288;SDS011;26089;43.538;5.250;2023-01-23T05:32:41;87.60;;;28.63;;
16288;SDS011;26089;43.538;5.250;2023-01-23T05:35:09;56.77;;;24.93;;
16288;SDS011;26089;43.538;5.250;2023-01-23T05:37:36;35.47;;;18.17;;
16288;SDS011;26089;43.538;5.250;2023-01-23T05:40:03;16.47;;;12.07;;
16288;SDS011;26089;43.538;5.250;2023-01-23T05:42:33;18.83;;;12.87;;
16288;SDS011;26089;43.538;5.250;2023-01-23T05:45:00;12.67;;;9.20;;
16288;SDS011;26089;43.538;5.250;2023-01-23T05:47:28;18.43;;;10.70;;
16288;SDS011;26089;43.538;5.250;2023-01-23T05:49:55;15.50;;;11.00;;
16288;SDS011;26089;43.538;5.250;2023-01-23T05:52:22;21.30;;;12.43;;
16288;SDS011;26089;43.538;5.250;2023-01-23T05:54:49;15.53;;;11.07;;
16288;SDS011;26089;43.538;5.250;2023-01-23T05:57:16;22.00;;;13.20;;
16288;SDS011;26089;43.538;5.250;2023-01-23T05:59:43;48.03;;;22.00;;
16288;SDS011;26089;43.538;5.250;2023-01-23T06:02:10;29.53;;;16.67;;
16288;SDS011;26089;43.538;5.250;2023-01-23T06:04:39;29.13;;;15.00;;
16288;SDS011;26089;43.538;5.250;2023-01-23T06:07:06;21.47;;;12.60;;
16288;SDS011;26089;43.538;5.250;2023-01-23T06:09:37;16.60;;;12.10;;
16288;SDS011;26089;43.538;5.250;2023-01-23T06:12:05;17.70;;;12.30;;
16288;SDS011;26089;43.538;5.250;2023-01-23T06:14:32;26.30;;;14.20;;
16288;SDS011;26089;43.538;5.250;2023-01-23T06:16:59;23.83;;;14.43;;
16288;SDS011;26089;43.538;5.250;2023-01-23T06:19:26;24.57;;;12.87;;
16288;SDS011;26089;43.538;5.250;2023-01-23T06:21:55;15.70;;;11.17;;
16288;SDS011;26089;43.538;5.250;2023-01-23T06:24:22;15.87;;;11.43;;
16288;SDS011;26089;43.538;5.250;2023-01-23T06:26:49;28.77;;;15.70;;
16288;SDS011;26089;43.538;5.250;2023-01-23T06:29:16;30.73;;;17.17;;
16288;SDS011;26089;43.538;5.250;2023-01-23T06:31:43;27.40;;;15.97;;
16288;SDS011;26089;43.538;5.250;2023-01-23T06:34:11;24.33;;;15.00;;
16288;SDS011;26089;43.538;5.250;2023-01-23T06:36:38;21.40;;;15.50;;
16288;SDS011;26089;43.538;5.250;2023-01-23T06:39:07;25.17;;;15.27;;
16288;SDS011;26089;43.538;5.250;2023-01-23T06:41:37;16.57;;;13.33;;
16288;SDS011;26089;43.538;5.250;2023-01-23T06:44:04;32.53;;;19.10;;
16288;SDS011;26089;43.538;5.250;2023-01-23T06:46:31;28.00;;;17.90;;
16288;SDS011;26089;43.538;5.250;2023-01-23T06:48:59;30.70;;;17.60;;
16288;SDS011;26089;43.538;5.250;2023-01-23T06:51:26;30.73;;;19.00;;
16288;SDS011;26089;43.538;5.250;2023-01-23T06:53:53;19.57;;;13.57;;
16288;SDS011;26089;43.538;5.250;2023-01-23T06:56:21;24.33;;;15.67;;
16288;SDS011;26089;43.538;5.250;2023-01-23T06:58:48;15.67;;;12.27;;
16288;SDS011;26089;43.538;5.250;2023-01-23T07:01:16;27.43;;;15.10;;
16288;SDS011;26089;43.538;5.250;2023-01-23T07:03:43;26.37;;;15.27;;
16288;SDS011;26089;43.538;5.250;2023-01-23T07:06:11;17.80;;;11.17;;
16288;SDS011;26089;43.538;5.250;2023-01-23T07:08:39;26.40;;;14.67;;
16288;SDS011;26089;43.538;5.250;2023-01-23T07:11:07;22.17;;;13.20;;
16288;SDS011;26089;43.538;5.250;2023-01-23T07:13:37;18.83;;;12.03;;
16288;SDS011;26089;43.538;5.250;2023-01-23T07:16:04;21.90;;;13.53;;
16288;SDS011;26089;43.538;5.250;2023-01-23T07:18:32;13.50;;;10.13;;
16288;SDS011;26089;43.538;5.250;2023-01-23T07:21:00;18.87;;;12.23;;
16288;SDS011;26089;43.538;5.250;2023-01-23T07:23:29;24.03;;;14.67;;
16288;SDS011;26089;43.538;5.250;2023-01-23T07:25:59;21.03;;;12.60;;
16288;SDS011;26089;43.538;5.250;2023-01-23T07:28:27;14.63;;;11.13;;
16288;SDS011;26089;43.538;5.250;2023-01-23T07:30:57;20.93;;;12.83;;
16288;SDS011;26089;43.538;5.250;2023-01-23T07:33:24;21.60;;;13.63;;
16288;SDS011;26089;43.538;5.250;2023-01-23T07:35:51;20.90;;;12.87;;
16288;SDS011;26089;43.538;5.250;2023-01-23T07:38:18;15.43;;;12.40;;
16288;SDS011;26089;43.538;5.250;2023-01-23T07:40:47;12.17;;;10.50;;
16288;SDS011;26089;43.538;5.250;2023-01-23T07:43:14;20.50;;;13.10;;
16288;SDS011;26089;43.538;5.250;2023-01-23T07:45:41;23.13;;;14.37;;
16288;SDS011;26089;43.538;5.250;2023-01-23T07:48:10;24.57;;;15.77;;
16288;SDS011;26089;43.538;5.250;2023-01-23T07:50:37;23.97;;;14.60;;
16288;SDS011;26089;43.538;5.250;2023-01-23T07:53:04;19.43;;;11.97;;
16288;SDS011;26089;43.538;5.250;2023-01-23T07:55:31;23.00;;;12.80;;
16288;SDS011;26089;43.538;5.250;2023-01-23T07:57:58;22.43;;;13.33;;
16288;SDS011;26089;43.538;5.250;2023-01-23T08:00:25;23.33;;;13.37;;
16288;SDS011;26089;43.538;5.250;2023-01-23T08:02:53;13.80;;;10.80;;
16288;SDS011;26089;43.538;5.250;2023-01-23T08:05:22;16.77;;;11.83;;
16288;SDS011;26089;43.538;5.250;2023-01-23T08:07:49;15.13;;;10.40;;
16288;SDS011;26089;43.538;5.250;2023-01-23T08:10:16;14.37;;;10.07;;
16288;SDS011;26089;43.538;5.250;2023-01-23T08:12:43;11.00;;;9.03;;
16288;SDS011;26089;43.538;5.250;2023-01-23T08:15:11;15.67;;;10.93;;
16288;SDS011;26089;43.538;5.250;2023-01-23T08:17:38;17.40;;;10.93;;
16288;SDS011;26089;43.538;5.250;2023-01-23T08:20:05;19.13;;;12.47;;
16288;SDS011;26089;43.538;5.250;2023-01-23T08:22:36;10.87;;;9.70;;
16288;SDS011;26089;43.538;5.250;2023-01-23T08:25:05;11.97;;;9.50;;
16288;SDS011;26089;43.538;5.250;2023-01-23T08:27:33;10.63;;;8.40;;
16288;SDS011;26089;43.538;5.250;2023-01-23T08:30:00;10.90;;;8.47;;
16288;SDS011;26089;43.538;5.250;2023-01-23T08:32:28;12.13;;;9.60;;
16288;SDS011;26089;43.538;5.250;2023-01-23T08:34:55;15.90;;;11.63;;
16288;SDS011;26089;43.538;5.250;2023-01-23T08:37:22;12.80;;;11.30;;
16288;SDS011;26089;43.538;5.250;2023-01-23T08:39:50;11.47;;;9.00;;
16288;SDS011;26089;43.538;5.250;2023-01-23T08:42:17;9.13;;;8.23;;
16288;SDS011;26089;43.538;5.250;2023-01-23T08:44:44;9.57;;;8.47;;
16288;SDS011;26089;43.538;5.250;2023-01-23T08:47:11;13.77;;;8.37;;
16288;SDS011;26089;43.538;5.250;2023-01-23T08:49:38;11.33;;;9.10;;
16288;SDS011;26089;43.538;5.250;2023-01-23T08:52:05;13.33;;;9.30;;
16288;SDS011;26089;43.538;5.250;2023-01-23T08:54:32;11.77;;;9.07;;
16288;SDS011;26089;43.538;5.250;2023-01-23T08:57:00;12.27;;;9.87;;
16288;SDS011;26089;43.538;5.250;2023-01-23T08:59:27;9.20;;;8.20;;
16288;SDS011;26089;43.538;5.250;2023-01-23T09:01:54;13.97;;;8.83;;
16288;SDS011;26089;43.538;5.250;2023-01-23T09:04:21;8.70;;;7.80;;
16288;SDS011;26089;43.538;5.250;2023-01-23T09:06:48;9.73;;;8.03;;
16288;SDS011;26089;43.538;5.250;2023-01-23T09:09:15;10.80;;;8.57;;
16288;SDS011;26089;43.538;5.250;2023-01-23T09:11:44;9.77;;;7.83;;
16288;SDS011;26089;43.538;5.250;2023-01-23T09:14:13;10.10;;;9.07;;
16288;SDS011;26089;43.538;5.250;2023-01-23T09:16:40;10.17;;;7.80;;
16288;SDS011;26089;43.538;5.250;2023-01-23T09:19:07;12.23;;;9.67;;
16288;SDS011;26089;43.538;5.250;2023-01-23T09:21:34;11.77;;;9.33;;
16288;SDS011;26089;43.538;5.250;2023-01-23T09:24:01;10.00;;;8.63;;
16288;SDS011;26089;43.538;5.250;2023-01-23T09:26:28;11.43;;;8.73;;
16288;SDS011;26089;43.538;5.250;2023-01-23T09:28:55;9.77;;;8.10;;
16288;SDS011;26089;43.538;5.250;2023-01-23T09:31:24;8.97;;;7.97;;
16288;SDS011;26089;43.538;5.250;2023-01-23T09:33:51;11.80;;;8.23;;
16288;SDS011;26089;43.538;5.250;2023-01-23T09:36:18;9.53;;;8.53;;
16288;SDS011;26089;43.538;5.250;2023-01-23T09:38:46;14.83;;;9.87;;
16288;SDS011;26089;43.538;5.250;2023-01-23T09:41:15;10.13;;;9.07;;
16288;SDS011;26089;43.538;5.250;2023-01-23T09:43:46;13.60;;;9.63;;
16288;SDS011;26089;43.538;5.250;2023-01-23T09:46:19;13.43;;;10.00;;
16288;SDS011;26089;43.538;5.250;2023-01-23T09:48:52;13.20;;;9.90;;
16288;SDS011;26089;43.538;5.250;2023-01-23T09:51:24;15.47;;;9.63;;
16288;SDS011;26089;43.538;5.250;2023-01-23T09:53:55;13.63;;;9.93;;
16288;SDS011;26089;43.538;5.250;2023-01-23T09:56:29;10.90;;;9.33;;
16288;SDS011;26089;43.538;5.250;2023-01-23T09:59:02;14.20;;;10.33;;
16288;SDS011;26089;43.538;5.250;2023-01-23T10:01:37;11.43;;;9.27;;
16288;SDS011;26089;43.538;5.250;2023-01-23T10:04:08;12.93;;;9.97;;
16288;SDS011;26089;43.538;5.250;2023-01-23T10:06:44;13.90;;;10.43;;
16288;SDS011;26089;43.538;5.250;2023-01-23T10:09:34;12.27;;;9.77;;
16288;SDS011;26089;43.538;5.250;2023-01-23T10:12:12;11.47;;;8.83;;
16288;SDS011;26089;43.538;5.250;2023-01-23T10:14:53;10.53;;;9.20;;
16288;SDS011;26089;43.538;5.250;2023-01-23T10:17:32;27.27;;;15.20;;
16288;SDS011;26089;43.538;5.250;2023-01-23T10:20:17;19.90;;;12.17;;
16288;SDS011;26089;43.538;5.250;2023-01-23T10:23:05;11.60;;;9.07;;
16288;SDS011;26089;43.538;5.250;2023-01-23T10:25:42;13.00;;;10.40;;
16288;SDS011;26089;43.538;5.250;2023-01-23T10:28:17;11.20;;;10.10;;
16288;SDS011;26089;43.538;5.250;2023-01-23T10:30:54;12.63;;;9.33;;
16288;SDS011;26089;43.538;5.250;2023-01-23T10:33:26;12.67;;;10.20;;
16288;SDS011;26089;43.538;5.250;2023-01-23T10:36:10;13.30;;;9.47;;
16288;SDS011;26089;43.538;5.250;2023-01-23T10:38:45;12.50;;;9.73;;
16288;SDS011;26089;43.538;5.250;2023-01-23T10:41:15;12.17;;;9.87;;
16288;SDS011;26089;43.538;5.250;2023-01-23T10:43:45;35.87;;;22.50;;
16288;SDS011;26089;43.538;5.250;2023-01-23T10:46:14;14.93;;;12.47;;
16288;SDS011;26089;43.538;5.250;2023-01-23T10:48:44;11.60;;;9.47;;
16288;SDS011;26089;43.538;5.250;2023-01-23T10:51:24;10.93;;;8.60;;
16288;SDS011;26089;43.538;5.250;2023-01-23T10:56:45;10.73;;;8.60;;
16288;SDS011;26089;43.538;5.250;2023-01-23T10:59:18;11.60;;;9.03;;
16288;SDS011;26089;43.538;5.250;2023-01-23T11:01:55;12.30;;;8.83;;
16288;SDS011;26089;43.538;5.250;2023-01-23T11:04:25;9.13;;;8.00;;
16288;SDS011;26089;43.538;5.250;2023-01-23T11:07:06;12.40;;;9.53;;
16288;SDS011;26089;43.538;5.250;2023-01-23T11:09:44;10.37;;;8.37;;
16288;SDS011;26089;43.538;5.250;2023-01-23T11:12:14;10.07;;;8.27;;
16288;SDS011;26089;43.538;5.250;2023-01-23T11:14:43;9.93;;;7.90;;
16288;SDS011;26089;43.538;5.250;2023-01-23T11:17:15;9.00;;;8.07;;
16288;SDS011;26089;43.538;5.250;2023-01-23T11:19:45;9.87;;;8.10;;
16288;SDS011;26089;43.538;5.250;2023-01-23T11:22:30;10.20;;;8.33;;
16288;SDS011;26089;43.538;5.250;2023-01-23T11:25:02;8.70;;;7.50;;
16288;SDS011;26089;43.538;5.250;2023-01-23T11:27:56;9.87;;;8.20;;
16288;SDS011;26089;43.538;5.250;2023-01-23T11:30:38;9.10;;;7.67;;
16288;SDS011;26089;43.538;5.250;2023-01-23T11:33:11;9.40;;;7.63;;
16288;SDS011;26089;43.538;5.250;2023-01-23T11:35:46;10.37;;;8.33;;
16288;SDS011;26089;43.538;5.250;2023-01-23T11:38:27;9.13;;;8.10;;
16288;SDS011;26089;43.538;5.250;2023-01-23T11:40:59;8.50;;;7.37;;
16288;SDS011;26089;43.538;5.250;2023-01-23T11:43:26;8.63;;;7.73;;
16288;SDS011;26089;43.538;5.250;2023-01-23T11:46:04;8.57;;;7.27;;
16288;SDS011;26089;43.538;5.250;2023-01-23T11:48:47;8.80;;;7.43;;
16288;SDS011;26089;43.538;5.250;2023-01-23T11:51:35;8.57;;;7.67;;
16288;SDS011;26089;43.538;5.250;2023-01-23T11:54:13;8.77;;;7.50;;
16288;SDS011;26089;43.538;5.250;2023-01-23T11:57:00;8.30;;;6.70;;
16288;SDS011;26089;43.538;5.250;2023-01-23T12:08:49;7.67;;;6.87;;
16288;SDS011;26089;43.538;5.250;2023-01-23T12:11:29;8.07;;;7.27;;
16288;SDS011;26089;43.538;5.250;2023-01-23T12:14:03;9.33;;;7.63;;
16288;SDS011;26089;43.538;5.250;2023-01-23T12:16:51;8.63;;;7.73;;
16288;SDS011;26089;43.538;5.250;2023-01-23T12:19:26;9.97;;;6.87;;
16288;SDS011;26089;43.538;5.250;2023-01-23T12:22:05;8.40;;;7.53;;
16288;SDS011;26089;43.538;5.250;2023-01-23T12:24:45;8.17;;;7.03;;
16288;SDS011;26089;43.538;5.250;2023-01-23T12:27:26;7.50;;;6.70;;
16288;SDS011;26089;43.538;5.250;2023-01-23T12:32:56;8.50;;;6.53;;
16288;SDS011;26089;43.538;5.250;2023-01-23T12:35:32;7.90;;;6.90;;
16288;SDS011;26089;43.538;5.250;2023-01-23T12:38:14;8.10;;;7.30;;
16288;SDS011;26089;43.538;5.250;2023-01-23T12:40:50;9.53;;;8.07;;
16288;SDS011;26089;43.538;5.250;2023-01-23T12:43:27;8.87;;;7.90;;
16288;SDS011;26089;43.538;5.250;2023-01-23T12:46:02;8.80;;;7.40;;
16288;SDS011;26089;43.538;5.250;2023-01-23T12:48:35;10.77;;;7.60;;
16288;SDS011;26089;43.538;5.250;2023-01-23T12:51:07;10.57;;;8.00;;
16288;SDS011;26089;43.538;5.250;2023-01-23T12:53:39;9.10;;;7.53;;
16288;SDS011;26089;43.538;5.250;2023-01-23T12:56:09;8.73;;;7.60;;
16288;SDS011;26089;43.538;5.250;2023-01-23T12:58:43;8.23;;;7.50;;
16288;SDS011;26089;43.538;5.250;2023-01-23T13:01:23;8.53;;;7.43;;
16288;SDS011;26089;43.538;5.250;2023-01-23T13:04:08;10.10;;;7.80;;
16288;SDS011;26089;43.538;5.250;2023-01-23T13:09:57;8.07;;;6.83;;
16288;SDS011;26089;43.538;5.250;2023-01-23T13:12:39;11.13;;;7.73;;
16288;SDS011;26089;43.538;5.250;2023-01-23T13:18:00;9.53;;;8.10;;
16288;SDS011;26089;43.538;5.250;2023-01-23T13:20:28;10.00;;;7.63;;
16288;SDS011;26089;43.538;5.250;2023-01-23T13:23:27;9.47;;;8.03;;
16288;SDS011;26089;43.538;5.250;2023-01-23T13:26:22;11.43;;;8.63;;
16288;SDS011;26089;43.538;5.250;2023-01-23T13:28:53;8.00;;;7.30;;
16288;SDS011;26089;43.538;5.250;2023-01-23T13:40:01;8.97;;;7.60;;
16288;SDS011;26089;43.538;5.250;2023-01-23T13:42:39;12.37;;;9.90;;
16288;SDS011;26089;43.538;5.250;2023-01-23T13:45:22;11.93;;;8.50;;
16288;SDS011;26089;43.538;5.250;2023-01-23T13:51:28;10.57;;;7.87;;
16288;SDS011;26089;43.538;5.250;2023-01-23T13:53:55;9.63;;;8.37;;
16288;SDS011;26089;43.538;5.250;2023-01-23T13:56:40;9.27;;;8.33;;
16288;SDS011;26089;43.538;5.250;2023-01-23T13:59:18;9.13;;;8.00;;
16288;SDS011;26089;43.538;5.250;2023-01-23T14:01:54;9.00;;;8.03;;
16288;SDS011;26089;43.538;5.250;2023-01-23T14:04:43;12.67;;;8.83;;
16288;SDS011;26089;43.538;5.250;2023-01-23T14:07:42;10.47;;;8.50;;
16288;SDS011;26089;43.538;5.250;2023-01-23T14:10:15;9.27;;;7.97;;
16288;SDS011;26089;43.538;5.250;2023-01-23T14:12:45;10.97;;;8.37;;
16288;SDS011;26089;43.538;5.250;2023-01-23T14:15:20;8.40;;;7.60;;
16288;SDS011;26089;43.538;5.250;2023-01-23T14:18:12;10.30;;;8.87;;
16288;SDS011;26089;43.538;5.250;2023-01-23T14:20:47;10.03;;;8.93;;
16288;SDS011;26089;43.538;5.250;2023-01-23T14:23:25;10.87;;;8.53;;
16288;SDS011;26089;43.538;5.250;2023-01-23T14:25:55;11.30;;;9.17;;
16288;SDS011;26089;43.538;5.250;2023-01-23T14:28:22;10.60;;;9.17;;
16288;SDS011;26089;43.538;5.250;2023-01-23T14:30:53;11.80;;;9.67;;
16288;SDS011;26089;43.538;5.250;2023-01-23T14:33:21;12.17;;;9.67;;
16288;SDS011;26089;43.538;5.250;2023-01-23T14:35:49;13.93;;;10.37;;
16288;SDS011;26089;43.538;5.250;2023-01-23T14:38:19;37.83;;;22.27;;
16288;SDS011;26089;43.538;5.250;2023-01-23T14:40:53;9.67;;;7.80;;
16288;SDS011;26089;43.538;5.250;2023-01-23T14:43:21;12.77;;;10.10;;
16288;SDS011;26089;43.538;5.250;2023-01-23T14:45:51;13.03;;;8.97;;
16288;SDS011;26089;43.538;5.250;2023-01-23T14:48:26;14.40;;;10.63;;
16288;SDS011;26089;43.538;5.250;2023-01-23T14:51:00;21.23;;;12.67;;
16288;SDS011;26089;43.538;5.250;2023-01-23T14:53:33;14.00;;;10.53;;
16288;SDS011;26089;43.538;5.250;2023-01-23T14:56:06;21.43;;;14.90;;
16288;SDS011;26089;43.538;5.250;2023-01-23T14:58:35;23.63;;;15.47;;
16288;SDS011;26089;43.538;5.250;2023-01-23T15:01:03;11.90;;;9.53;;
16288;SDS011;26089;43.538;5.250;2023-01-23T15:03:33;13.00;;;10.07;;
16288;SDS011;26089;43.538;5.250;2023-01-23T15:06:06;10.40;;;9.27;;
16288;SDS011;26089;43.538;5.250;2023-01-23T15:08:38;11.10;;;8.53;;
16288;SDS011;26089;43.538;5.250;2023-01-23T15:11:05;11.70;;;8.97;;
16288;SDS011;26089;43.538;5.250;2023-01-23T15:13:39;11.63;;;10.40;;
16288;SDS011;26089;43.538;5.250;2023-01-23T15:16:16;12.50;;;9.30;;
16288;SDS011;26089;43.538;5.250;2023-01-23T15:18:56;13.37;;;9.60;;
16288;SDS011;26089;43.538;5.250;2023-01-23T15:21:27;11.50;;;9.90;;
16288;SDS011;26089;43.538;5.250;2023-01-23T15:23:59;12.57;;;9.47;;
16288;SDS011;26089;43.538;5.250;2023-01-23T15:26:42;11.70;;;9.17;;
16288;SDS011;26089;43.538;5.250;2023-01-23T15:29:17;10.53;;;9.40;;